Terminal Aerodrome Forecast
Issued by NWS Sterling, VA

Home | Current Version | Previous Version | Text Only | Print | Product List | Glossary On
Versions: 1 2 3 4 5 6 7 8 9 10 11 12 13 14 15
000
FTUS41 KLWX 291122
TAFCHO
TAF
KCHO 291122Z 2912/3012 00000KT P6SM SCT070
     FM291800 17005KT 6SM -SHRA VCTS BKN040CB
     FM292200 VRB05KT P6SM BKN090=

USA.gov is the U.S. government's official web portal to all federal, state and local government web resources and services.